KRBG

Roseburg Regional Airport

Roseburg, Oregon, USA
METAR KRBG 171753Z AUTO 00000KT 10SM CLR 14/04 A3016 RMK AO2 SLP212 T01390039 10139 20044 58003
Observed Flight Rules
Oct-17 @ 17:53 UTC (33 minutes ago) Visual Flight Rules
Visibility Clouds
10 miles
  • Clear skies
Temperatures Readings
Current 14°C / 57°F
Dewpoint 4°C / 39°F
Humidity 51%
Altimeter 30.16" Hg
Pressure 1021.2 hPa
Elevation 154
METAR KRBG 171753Z AUTO 00000KT 10SM CLR 14/04 A3016 RMK AO2 SLP212 T01390039 10139 20044 58003
Observed Flight Rules
Oct-17 @ 17:53 UTC
(33 minutes ago)
VFR
Clouds
  • Clear skies
Temperature Dewpoint
14°C / 57°F 4°C / 39°F
Humidity Altimeter Pressure
51% 30.16" Hg 1021.2 hPa